Time;durP1;ratioP1;P1;durP2;ratioP2;P2;SDS_P1;SDS_P2;PMS_P1;PMS_P2;Temp;Humidity;BMP_temperature;BMP_pressure;BME280_temperature;BME280_humidity;BME280_pressure;Samples;Min_cycle;Max_cycle;Signal;HPM_P1;HPM_P2
2022/08/12 00:44:29;;;;;;;2.85;2.65;;;;;;;22.09;47.63;93942.91;5005557;28;20175;-75
2022/08/12 00:47:00;;;;;;;3.20;2.50;;;;;;;22.08;47.40;93944.84;5006748;28;20021;-74
2022/08/12 00:49:28;;;;;;;3.25;2.95;;;;;;;22.03;48.18;93939.03;5007250;28;20025;-75
2022/08/12 00:52:05;;;;;;;3.22;2.72;;;;;;;21.94;47.95;93923.13;5013629;28;20030;-74
2022/08/12 00:54:41;;;;;;;3.78;2.90;;;;;;;21.96;48.42;93937.06;5005370;28;20041;-75
2022/08/12 00:57:12;;;;;;;5.80;3.10;;;;;;;21.93;48.38;93937.81;5004819;28;20067;-75
2022/08/12 00:59:56;;;;;;;2.95;2.60;;;;;;;21.78;48.38;93925.38;5005357;28;20018;-75
2022/08/12 01:02:29;;;;;;;4.68;2.70;;;;;;;21.80;48.57;93958.28;5006521;28;20042;-75
2022/08/12 01:13:22;;;;;;;3.20;2.53;;;;;;;21.64;47.47;93968.63;5005491;28;20099;-75
2022/08/12 01:15:54;;;;;;;3.00;2.63;;;;;;;21.61;47.17;93959.34;5007593;28;20112;-74
2022/08/12 01:18:23;;;;;;;3.50;3.20;;;;;;;21.73;47.18;93960.94;5004207;28;20974;-75
2022/08/12 01:20:51;;;;;;;6.05;2.65;;;;;;;21.81;47.35;93967.94;5005619;28;20073;-75
2022/08/12 01:24:05;;;;;;;3.88;3.15;;;;;;;21.86;47.30;93965.63;5007183;28;20073;-74
2022/08/12 01:26:32;;;;;;;4.00;3.13;;;;;;;21.81;47.23;93973.34;5068934;28;20037;-74
2022/08/12 01:29:02;;;;;;;4.05;2.88;;;;;;;21.87;46.73;93966.41;5012077;28;20017;-75
2022/08/12 01:31:28;;;;;;;3.55;2.60;;;;;;;21.78;46.51;93944.34;5003970;28;20103;-75
2022/08/12 01:34:05;;;;;;;2.88;2.45;;;;;;;21.79;46.60;93943.19;5002290;28;20022;-76
2022/08/12 01:36:41;;;;;;;3.08;2.60;;;;;;;21.87;46.83;93961.78;5006585;28;20030;-75
2022/08/12 01:39:08;;;;;;;3.80;2.83;;;;;;;21.90;46.54;93957.56;5008017;28;20029;-75
2022/08/12 01:41:46;;;;;;;4.45;2.67;;;;;;;21.91;46.50;93969.91;5005631;28;20075;-75
2022/08/12 01:44:13;;;;;;;2.72;2.40;;;;;;;21.85;47.08;93966.78;5006890;28;20025;-75
2022/08/12 01:47:02;;;;;;;3.25;2.95;;;;;;;21.61;47.11;93905.22;5004588;28;20033;-74
2022/08/12 01:49:49;;;;;;;3.03;2.75;;;;;;;22.04;46.83;93960.31;4995496;28;20162;-75
2022/08/12 01:52:47;;;;;;;2.67;2.47;;;;;;;22.09;46.76;93962.66;5005640;28;20030;-75
2022/08/12 01:55:14;;;;;;;2.92;2.72;;;;;;;22.13;46.69;93955.31;5011744;28;20052;-74
2022/08/12 01:57:48;;;;;;;2.95;2.50;;;;;;;22.01;46.76;93939.38;5004529;28;20385;-75
2022/08/12 02:00:17;;;;;;;4.00;3.60;;;;;;;22.09;47.51;93951.81;5004978;28;20445;-75
2022/08/12 02:03:16;;;;;;;3.10;2.80;;;;;;;21.96;48.20;93930.84;5004421;28;20036;-75
2022/08/12 02:11:53;;;;;;;3.88;2.78;;;;;;;21.87;48.63;93931.22;5006599;28;20627;-75
2022/08/12 02:14:50;;;;;;;3.90;2.70;;;;;;;21.97;48.76;93943.25;5008383;28;20036;-75
2022/08/12 02:17:21;;;;;;;3.22;2.75;;;;;;;22.00;48.59;93947.91;5010144;28;20038;-74
2022/08/12 02:20:08;;;;;;;2.65;2.40;;;;;;;22.01;49.07;93944.81;5008107;28;20026;-75
2022/08/12 02:22:38;;;;;;;3.38;2.88;;;;;;;22.03;49.00;93949.84;5008552;28;20132;-75
2022/08/12 02:25:15;;;;;;;5.22;3.28;;;;;;;22.06;48.87;93949.06;5007569;28;20048;-74
2022/08/12 02:27:50;;;;;;;3.55;2.70;;;;;;;22.02;48.68;93951.78;5008664;28;20022;-74
2022/08/12 02:30:30;;;;;;;3.47;2.88;;;;;;;22.01;48.85;93944.03;5008555;28;20041;-75
2022/08/12 02:32:59;;;;;;;2.80;2.38;;;;;;;21.99;48.75;93946.34;5007138;28;20030;-75
2022/08/12 02:35:27;;;;;;;4.55;2.90;;;;;;;21.95;48.51;93938.19;5006701;28;20370;-75
2022/08/12 02:37:55;;;;;;;3.25;2.55;;;;;;;21.90;48.50;93933.19;5008513;28;20135;-75
2022/08/12 02:40:23;;;;;;;3.00;2.70;;;;;;;21.80;48.49;93920.38;5008419;28;20021;-75
2022/08/12 02:43:16;;;;;;;3.17;2.88;;;;;;;21.96;48.89;93947.88;5009781;28;20091;-75
2022/08/12 02:45:50;;;;;;;2.72;2.38;;;;;;;21.96;48.65;93947.88;5008506;28;20029;-75
2022/08/12 02:48:44;;;;;;;3.00;2.60;;;;;;;22.00;48.77;93942.50;5009076;28;20029;-74
2022/08/12 02:51:12;;;;;;;4.43;4.03;;;;;;;21.95;48.74;93930.09;5009436;28;20065;-74
2022/08/12 02:53:39;;;;;;;4.65;3.00;;;;;;;21.98;48.61;93932.03;5009081;28;20030;-75
2022/08/12 02:56:05;;;;;;;4.68;2.58;;;;;;;22.01;48.63;93933.19;5007337;28;20413;-75
2022/08/12 02:58:32;;;;;;;3.00;2.70;;;;;;;21.99;48.47;93941.72;5008488;28;20029;-74
2022/08/12 03:01:00;;;;;;;4.03;2.60;;;;;;;21.83;48.98;93916.91;5008597;28;20422;-75
2022/08/12 03:03:32;;;;;;;3.15;2.85;;;;;;;22.00;49.13;93956.03;5007530;28;20048;-75
2022/08/12 03:06:05;;;;;;;4.38;2.80;;;;;;;21.68;49.65;93901.75;5008104;28;20048;-75
2022/08/12 03:08:42;;;;;;;3.53;2.78;;;;;;;21.88;49.72;93940.91;5009795;28;20120;-74
2022/08/12 03:11:26;;;;;;;3.10;2.80;;;;;;;21.93;50.37;93945.94;5009670;28;20036;-74
2022/08/12 03:13:57;;;;;;;4.63;3.25;;;;;;;21.86;50.56;93940.50;5008900;28;20053;-74
2022/08/12 03:16:25;;;;;;;3.78;3.47;;;;;;;21.92;51.15;93946.31;5007731;28;20032;-75
2022/08/12 03:18:51;;;;;;;3.40;3.10;;;;;;;21.89;50.86;93947.88;5006732;28;20027;-75
2022/08/12 03:21:19;;;;;;;3.53;3.08;;;;;;;21.81;51.22;93946.28;5010629;28;20021;-74
2022/08/12 03:23:46;;;;;;;3.92;3.20;;;;;;;21.78;51.46;93953.25;5008859;28;20022;-76
2022/08/12 03:26:13;;;;;;;3.97;3.58;;;;;;;21.74;51.94;93948.97;5005942;28;20022;-75
2022/08/12 03:28:49;;;;;;;4.20;3.65;;;;;;;21.51;52.45;93916.72;5009924;28;20029;-75
2022/08/12 03:31:17;;;;;;;4.30;3.85;;;;;;;21.68;52.73;93951.25;5014746;28;20502;-74
2022/08/12 03:33:45;;;;;;;5.47;3.90;;;;;;;21.65;52.88;93964.78;5006285;28;20025;-75
2022/08/12 03:36:16;;;;;;;4.32;3.83;;;;;;;21.61;53.27;93964.75;5007957;28;20112;-74
2022/08/12 03:38:49;;;;;;;4.13;3.67;;;;;;;21.60;53.31;93963.22;5006010;28;20025;-75
2022/08/12 03:41:33;;;;;;;3.97;3.10;;;;;;;21.57;54.30;93957.75;5006151;28;20026;-75
2022/08/12 04:01:04;;;;;;;4.88;3.03;;;;;;;21.33;56.19;93959.94;5007082;28;20044;-74
2022/08/12 04:06:17;;;;;;;4.50;4.10;;;;;;;21.39;55.73;93968.47;5008492;28;20072;-74
2022/08/12 04:08:43;;;;;;;7.03;4.72;;;;;;;21.34;56.18;93964.19;5005275;28;20026;-75
2022/08/12 04:13:52;;;;;;;6.23;4.80;;;;;;;21.28;56.73;93959.50;5007552;28;20074;-74
2022/08/12 04:16:19;;;;;;;5.40;4.60;;;;;;;21.28;56.81;93971.09;5006517;28;20026;-75
2022/08/12 04:18:45;;;;;;;8.02;4.45;;;;;;;21.25;57.08;93968.38;5007570;28;20459;-74
2022/08/12 04:21:10;;;;;;;6.78;5.45;;;;;;;21.22;57.67;93967.19;5008356;28;20029;-75
2022/08/12 04:23:37;;;;;;;7.88;4.10;;;;;;;21.13;57.40;93963.25;5009093;28;20477;-74
2022/08/12 04:26:06;;;;;;;5.22;3.85;;;;;;;21.05;56.83;93959.75;5004467;28;20040;-76
2022/08/12 04:28:31;;;;;;;5.75;3.67;;;;;;;21.11;56.80;93969.06;5005212;28;20021;-76
2022/08/12 04:30:57;;;;;;;6.00;3.90;;;;;;;21.05;57.28;93964.38;5008096;28;20469;-74
2022/08/12 04:33:23;;;;;;;3.95;3.50;;;;;;;20.98;57.46;93960.47;5006757;28;20042;-74
2022/08/12 04:35:48;;;;;;;6.57;3.58;;;;;;;20.96;57.45;93960.06;5006682;28;20503;-74
2022/08/12 04:38:15;;;;;;;4.32;3.92;;;;;;;20.81;57.62;93939.47;5008818;28;20033;-76
2022/08/12 04:40:44;;;;;;;3.60;3.00;;;;;;;20.85;57.50;93945.66;5008707;28;20047;-76
2022/08/12 04:43:09;;;;;;;4.07;3.40;;;;;;;20.70;57.97;93927.00;5005414;28;20128;-74
2022/08/12 04:45:37;;;;;;;4.72;3.22;;;;;;;20.98;57.46;93965.09;5008191;28;20026;-76
2022/08/12 04:48:03;;;;;;;4.72;3.75;;;;;;;20.86;57.41;93946.44;5007832;28;20143;-76
2022/08/12 04:50:29;;;;;;;4.30;3.42;;;;;;;20.98;58.06;93965.88;5006641;28;20018;-76
2022/08/12 04:52:55;;;;;;;6.95;3.13;;;;;;;20.99;58.08;93962.03;5006105;28;20090;-74
2022/08/12 04:55:22;;;;;;;4.30;3.20;;;;;;;20.90;57.98;93947.28;5007603;28;20029;-75
2022/08/12 04:57:48;;;;;;;3.80;2.97;;;;;;;20.80;57.73;93935.19;5006926;28;20037;-74
2022/08/12 05:00:15;;;;;;;3.72;2.70;;;;;;;20.97;57.68;93968.97;5006349;28;20033;-74
2022/08/12 05:02:41;;;;;;;3.38;3.08;;;;;;;20.97;57.19;93964.31;5006120;28;20440;-74
2022/08/12 05:05:09;;;;;;;3.88;3.13;;;;;;;20.96;57.64;93962.78;5008096;28;20687;-74
2022/08/12 05:07:35;;;;;;;2.97;2.65;;;;;;;20.87;58.21;93948.81;5007774;28;20045;-74
2022/08/12 05:10:01;;;;;;;5.55;3.67;;;;;;;20.66;58.12;93921.56;5005394;28;20075;-76
2022/08/12 05:12:36;;;;;;;4.00;3.42;;;;;;;20.94;58.20;93964.28;5006066;28;20053;-77
2022/08/12 05:15:04;;;;;;;4.53;3.67;;;;;;;20.89;58.50;93956.53;5006741;28;20025;-75
2022/08/12 05:17:29;;;;;;;3.95;3.63;;;;;;;20.86;58.14;93962.66;5001556;28;20044;-76
2022/08/12 05:19:55;;;;;;;8.52;4.22;;;;;;;20.87;58.24;93958.84;5004319;28;20017;-76
2022/08/12 05:22:20;;;;;;;8.18;4.85;;;;;;;20.91;58.86;93970.47;5006103;28;20060;-76
2022/08/12 05:24:46;;;;;;;6.53;4.45;;;;;;;20.87;58.94;93965.03;5003533;28;20017;-76
2022/08/12 05:27:12;;;;;;;7.22;4.40;;;;;;;20.81;58.72;93944.09;5004702;28;20086;-76
2022/08/12 05:29:38;;;;;;;5.85;5.10;;;;;;;20.97;58.30;93966.25;5005223;28;20021;-77
2022/08/12 05:32:06;;;;;;;6.35;4.20;;;;;;;20.94;58.09;93953.47;5003355;28;20095;-76
2022/08/12 05:34:33;;;;;;;10.20;6.22;;;;;;;21.10;57.89;93981.03;5006095;28;20029;-76
2022/08/12 05:36:59;;;;;;;7.82;5.10;;;;;;;21.10;58.37;93972.91;5005684;28;20061;-76
2022/08/12 05:39:24;;;;;;;7.07;4.97;;;;;;;21.02;58.92;93963.97;5006559;27;20137;-76
2022/08/12 05:41:49;;;;;;;7.55;5.13;;;;;;;21.15;59.17;93980.69;5001833;27;20508;-74
2022/08/12 05:44:15;;;;;;;6.45;5.82;;;;;;;21.01;59.10;93953.53;5002988;28;20056;-76
2022/08/12 05:46:41;;;;;;;7.65;5.53;;;;;;;21.27;57.97;93987.69;5007828;28;20388;-76
2022/08/12 05:49:07;;;;;;;7.75;5.93;;;;;;;21.18;58.64;93974.50;5011327;28;20079;-76
2022/08/12 05:51:36;;;;;;;6.20;5.60;;;;;;;21.18;59.35;93971.03;5007731;28;20033;-77
2022/08/12 05:54:02;;;;;;;7.43;6.47;;;;;;;21.29;59.41;93986.19;5007273;28;20025;-77
2022/08/12 05:56:33;;;;;;;9.82;8.02;;;;;;;21.33;59.14;93981.56;5006727;28;20022;-75
2022/08/12 05:59:00;;;;;;;9.23;6.32;;;;;;;21.28;58.50;93979.22;5006015;28;20052;-75
2022/08/12 06:01:27;;;;;;;8.40;6.18;;;;;;;21.36;57.48;93986.22;5006225;28;20033;-75
2022/08/12 06:03:54;;;;;;;8.18;5.55;;;;;;;21.31;58.22;93978.47;5007858;28;20034;-75
2022/08/12 06:06:21;;;;;;;8.77;5.80;;;;;;;21.38;58.44;93981.22;5007246;28;20071;-75
2022/08/12 06:08:52;;;;;;;7.05;5.75;;;;;;;21.42;58.29;93982.00;5007052;28;20036;-77
2022/08/12 06:11:19;;;;;;;9.45;6.13;;;;;;;21.44;58.18;93982.41;5007853;28;20135;-76
2022/08/12 06:13:45;;;;;;;10.02;6.15;;;;;;;21.44;58.81;93985.13;5008638;28;20136;-76
2022/08/12 06:16:13;;;;;;;9.18;6.78;;;;;;;21.37;58.77;93968.84;5008705;28;20053;-76
2022/08/12 06:18:40;;;;;;;7.93;6.55;;;;;;;21.51;57.62;93992.50;5007218;28;20029;-77
2022/08/12 06:21:12;;;;;;;7.18;6.25;;;;;;;21.49;58.14;93980.50;5006975;28;20042;-77
2022/08/12 06:23:38;;;;;;;6.78;5.25;;;;;;;21.51;58.06;93986.34;5007505;28;20045;-78
2022/08/12 06:26:06;;;;;;;8.88;6.65;;;;;;;21.43;57.81;93975.44;5005917;28;20034;-77
2022/08/12 06:28:32;;;;;;;9.35;7.22;;;;;;;21.33;58.65;93986.19;5008133;28;20028;-76
2022/08/12 06:30:58;;;;;;;9.93;7.93;;;;;;;21.42;58.71;93975.81;5007685;28;20022;-75
2022/08/12 06:33:24;;;;;;;12.10;7.55;;;;;;;21.46;58.65;93990.91;5008343;28;20493;-75
2022/08/12 06:35:50;;;;;;;18.58;7.72;;;;;;;21.32;58.37;93957.59;5004824;28;20022;-76
2022/08/12 06:38:21;;;;;;;7.72;6.63;;;;;;;21.05;58.41;93921.91;5007987;28;20549;-76
2022/08/12 06:43:35;;;;;;;9.02;7.00;;;;;;;21.52;58.98;93991.34;5008349;28;20090;-75
2022/08/12 06:46:00;;;;;;;12.02;7.60;;;;;;;21.51;58.92;93975.50;5009882;28;20442;-77
2022/08/12 06:48:27;;;;;;;8.57;6.60;;;;;;;21.50;58.56;93979.34;5005888;28;20133;-77
2022/08/12 06:50:54;;;;;;;8.88;7.00;;;;;;;21.40;58.98;93949.16;5004334;28;20032;-76
2022/08/12 06:53:22;;;;;;;9.07;7.18;;;;;;;21.55;59.77;93968.22;5005614;28;20036;-77
2022/08/12 06:55:48;;;;;;;10.68;5.68;;;;;;;21.62;59.98;93970.94;5003371;28;20025;-76
2022/08/12 06:58:15;;;;;;;7.55;5.22;;;;;;;21.73;59.89;93977.97;5003972;28;20030;-77
2022/08/12 07:00:42;;;;;;;8.60;4.20;;;;;;;21.57;59.10;93961.25;4997872;28;20686;-78
2022/08/12 07:03:16;;;;;;;6.88;4.38;;;;;;;21.56;58.62;93956.22;4984650;28;20165;-77
2022/08/12 07:05:42;;;;;;;5.43;3.88;;;;;;;21.60;58.93;93973.25;4984693;27;20042;-76
2022/08/12 07:08:08;;;;;;;6.53;4.20;;;;;;;21.55;59.50;93960.09;5000018;28;20405;-76
2022/08/12 07:10:56;;;;;;;5.22;4.45;;;;;;;21.23;59.69;93908.47;5004311;28;20033;-76
2022/08/12 07:13:22;;;;;;;5.85;4.90;;;;;;;21.51;60.49;93957.31;5007109;28;20037;-76
2022/08/12 07:15:49;;;;;;;4.82;3.55;;;;;;;21.55;60.89;93965.50;5005871;28;20113;-76
2022/08/12 07:18:18;;;;;;;4.28;3.20;;;;;;;21.40;60.63;93962.69;5001041;28;20026;-77
2022/08/12 07:20:48;;;;;;;5.00;3.55;;;;;;;21.39;60.48;93965.75;5002902;28;20026;-76
2022/08/12 07:23:15;;;;;;;3.55;2.92;;;;;;;21.30;60.89;93946.38;5009352;28;20111;-76
2022/08/12 07:25:42;;;;;;;9.38;3.13;;;;;;;21.36;58.29;93969.97;5007320;27;20024;-77
2022/08/12 07:28:10;;;;;;;5.50;2.90;;;;;;;21.38;58.18;93961.50;5009106;28;20025;-77
2022/08/12 07:30:38;;;;;;;5.53;3.40;;;;;;;21.44;57.09;93960.00;5002832;28;20094;-76
2022/08/12 07:33:07;;;;;;;4.60;2.60;;;;;;;21.49;57.35;93953.44;5005883;28;20094;-76
2022/08/12 07:35:34;;;;;;;3.70;3.10;;;;;;;21.32;58.14;93925.91;5008447;28;20392;-76
2022/08/12 07:38:01;;;;;;;4.18;3.50;;;;;;;21.47;56.59;93953.81;5007722;28;20035;-75
2022/08/12 07:40:28;;;;;;;3.97;3.10;;;;;;;21.32;59.51;93909.69;5006428;28;20059;-76
2022/08/12 07:42:55;;;;;;;5.72;3.15;;;;;;;21.60;58.90;93940.78;5005259;28;20057;-75
2022/08/12 07:45:20;;;;;;;7.55;3.00;;;;;;;21.64;55.53;93944.28;5004002;28;20086;-76
2022/08/12 07:47:47;;;;;;;4.68;2.63;;;;;;;21.59;55.34;93923.00;5004357;28;20036;-76
2022/08/12 07:50:15;;;;;;;3.83;2.20;;;;;;;21.79;53.98;93954.03;5006738;28;20234;-76
2022/08/12 07:52:44;;;;;;;3.70;2.80;;;;;;;21.72;54.52;93916.06;5007739;28;20385;-77
2022/08/12 07:55:11;;;;;;;4.80;2.80;;;;;;;21.97;54.50;93944.03;5009513;28;20051;-75
2022/08/12 07:57:52;;;;;;;4.65;2.92;;;;;;;21.93;53.39;93943.25;5009382;28;20606;-76
2022/08/12 08:00:18;;;;;;;10.15;4.80;;;;;;;21.78;53.14;93919.97;5005383;28;20489;-76
2022/08/12 08:02:44;;;;;;;3.03;2.72;;;;;;;21.80;52.88;93940.09;5005288;28;20116;-76
2022/08/12 08:05:09;;;;;;;5.97;2.88;;;;;;;21.48;52.99;93905.91;5006273;28;20029;-79
2022/08/12 08:07:35;;;;;;;4.00;3.03;;;;;;;21.41;52.08;93910.09;5007958;28;20070;-79
2022/08/12 08:10:05;;;;;;;3.70;2.85;;;;;;;21.65;52.30;93943.13;5001353;28;20408;-77
2022/08/12 08:13:16;;;;;;;8.52;3.10;;;;;;;21.69;51.82;93943.91;5003726;27;20079;-77
2022/08/12 08:15:16;;;;;;;5.22;2.83;;;;;;;21.51;51.65;93913.28;5002087;28;20033;-78
2022/08/12 08:18:31;;;;;;;3.30;2.75;;;;;;;21.78;52.10;93944.34;5002809;28;20033;-78
2022/08/12 08:21:11;;;;;;;3.10;2.45;;;;;;;21.70;50.99;93919.19;5045604;28;20041;-78
2022/08/12 08:26:21;;;;;;;2.35;1.95;;;;;;;21.86;49.60;93943.97;5005405;28;20055;-79
2022/08/12 08:28:47;;;;;;;2.53;2.03;;;;;;;21.89;49.16;93942.47;5002353;28;20026;-79
2022/08/12 08:31:13;;;;;;;4.65;2.03;;;;;;;21.84;49.36;93924.66;5003780;28;20401;-78
2022/08/12 08:33:40;;;;;;;3.22;2.25;;;;;;;21.80;49.53;93917.69;5013811;28;20070;-81
2022/08/12 08:36:06;;;;;;;4.55;2.00;;;;;;;21.75;49.09;93921.53;5004288;28;20040;-78
2022/08/12 08:38:31;;;;;;;2.33;2.00;;;;;;;21.76;48.44;93923.06;5008207;27;20029;-79
2022/08/12 08:43:41;;;;;;;2.67;2.47;;;;;;;21.34;49.73;93877.63;4999799;28;20121;-78
2022/08/12 08:46:06;;;;;;;2.50;2.15;;;;;;;21.66;49.15;93928.41;4999843;28;20021;-78
2022/08/12 08:48:32;;;;;;;7.80;2.65;;;;;;;21.42;48.41;93887.31;5003325;28;20572;-78
2022/08/12 08:50:58;;;;;;;2.67;2.47;;;;;;;21.75;49.05;93920.75;4998845;28;20162;-78
2022/08/12 08:53:24;;;;;;;2.20;1.92;;;;;;;21.73;48.05;93909.50;5001655;28;20042;-79
2022/08/12 08:55:49;;;;;;;1.90;1.70;;;;;;;21.88;47.06;93911.13;5004053;28;21089;-79
2022/08/12 08:58:15;;;;;;;2.65;2.22;;;;;;;22.07;46.70;93910.78;5002730;28;20025;-80
2022/08/12 09:00:41;;;;;;;2.10;1.77;;;;;;;22.22;45.61;93912.41;5006743;28;20528;-78
2022/08/12 09:03:07;;;;;;;2.50;2.13;;;;;;;22.14;47.29;93889.16;5002956;28;20543;-79
2022/08/12 09:05:33;;;;;;;2.22;1.88;;;;;;;22.45;43.95;93922.88;4999490;28;20022;-78
2022/08/12 09:08:02;;;;;;;2.97;1.98;;;;;;;22.55;42.48;93916.69;5002093;28;20136;-79
2022/08/12 09:10:27;;;;;;;2.05;1.85;;;;;;;22.57;42.58;93922.53;5003418;28;20033;-80
2022/08/12 09:15:37;;;;;;;1.65;1.38;;;;;;;22.46;41.71;93878.38;5007871;27;20147;-79
2022/08/12 09:18:06;;;;;;;2.78;1.80;;;;;;;22.27;41.10;93848.94;5004051;28;21137;-78
2022/08/12 09:20:34;;;;;;;1.67;1.40;;;;;;;22.76;42.04;93913.22;5005195;28;20492;-79
2022/08/12 09:46:04;;;;;;;2.50;2.20;;;;;;;23.61;41.43;93913.16;5069765;28;20043;-82
2022/08/12 09:48:31;;;;;;;2.67;2.00;;;;;;;23.38;40.71;93872.84;5066675;28;20156;-82
2022/08/12 09:50:57;;;;;;;2.38;2.17;;;;;;;23.45;41.34;93886.41;5070520;28;20151;-82
2022/08/12 09:53:24;;;;;;;2.28;1.98;;;;;;;23.35;41.22;93872.84;5073378;28;20423;-81
2022/08/12 09:55:55;;;;;;;2.20;1.98;;;;;;;23.53;41.40;93898.03;5070416;28;20445;-82
2022/08/12 09:58:27;;;;;;;4.05;2.40;;;;;;;23.59;41.17;93899.19;5059062;28;20028;-82
2022/08/12 10:00:55;;;;;;;3.15;2.42;;;;;;;23.58;42.95;93895.69;5045491;28;20432;-82
2022/08/12 10:03:22;;;;;;;2.42;2.08;;;;;;;23.49;43.28;93897.25;5052409;28;20517;-81
2022/08/12 10:05:50;;;;;;;3.40;2.25;;;;;;;23.41;43.00;93866.66;5045047;28;20025;-82
2022/08/12 10:08:56;;;;;;;4.05;2.08;;;;;;;23.73;43.68;93893.69;5061734;28;20075;-82
2022/08/12 10:14:07;;;;;;;3.17;2.70;;;;;;;23.91;42.10;93894.38;5064044;28;20070;-82
2022/08/12 10:16:33;;;;;;;2.42;2.00;;;;;;;23.94;43.03;93881.97;5065188;28;20115;-83
2022/08/12 10:19:05;;;;;;;2.50;2.30;;;;;;;24.07;41.50;93884.97;5063378;28;20495;-83
2022/08/12 10:21:36;;;;;;;2.72;2.35;;;;;;;23.92;40.86;93849.75;5071555;28;20501;-83
2022/08/12 10:24:07;;;;;;;4.57;2.58;;;;;;;24.05;41.24;93871.03;5067860;28;20086;-81
2022/08/12 10:29:38;;;;;;;2.60;2.33;;;;;;;24.10;42.53;93862.47;5064805;28;20170;-82
2022/08/12 10:32:05;;;;;;;2.63;2.40;;;;;;;24.18;40.54;93869.44;5063534;28;20024;-82
2022/08/12 10:34:31;;;;;;;3.28;2.50;;;;;;;24.26;41.36;93881.78;5062258;28;20595;-82
2022/08/12 10:36:58;;;;;;;3.80;2.20;;;;;;;24.28;41.89;93874.03;5062219;28;20028;-80
2022/08/12 10:39:27;;;;;;;5.00;2.65;;;;;;;24.30;40.60;93871.66;5064352;28;20119;-82
2022/08/12 10:44:37;;;;;;;3.50;2.70;;;;;;;24.38;41.72;93868.50;5052942;28;20047;-81
2022/08/12 10:47:03;;;;;;;5.60;2.80;;;;;;;24.46;41.75;93879.31;5048744;28;20491;-84
2022/08/12 10:49:33;;;;;;;3.35;2.10;;;;;;;24.46;41.75;93868.44;5046666;28;20142;-82
2022/08/12 10:52:01;;;;;;;3.03;2.10;;;;;;;24.39;41.56;93877.44;5048895;28;20098;-80
2022/08/12 10:54:27;;;;;;;2.35;1.95;;;;;;;24.20;41.32;93873.28;5061737;28;20029;-80
2022/08/12 10:56:54;;;;;;;2.40;2.20;;;;;;;24.17;41.69;93878.75;5050749;28;20615;-78
2022/08/12 10:59:20;;;;;;;2.25;2.05;;;;;;;24.14;43.10;93849.66;5050326;28;20178;-81
2022/08/12 11:01:47;;;;;;;2.60;2.40;;;;;;;24.38;41.88;93863.09;5051485;28;20119;-80
2022/08/12 11:04:12;;;;;;;2.95;2.40;;;;;;;24.38;42.02;93840.56;5048750;28;20036;-80
2022/08/12 11:06:52;;;;;;;5.65;2.70;;;;;;;24.51;42.93;93866.09;5050085;28;20028;-81
2022/08/12 11:09:18;;;;;;;2.40;2.20;;;;;;;24.12;42.73;93838.41;5048345;28;20023;-80
2022/08/12 11:11:47;;;;;;;2.35;2.15;;;;;;;24.08;41.84;93849.28;5048203;28;20021;-81
2022/08/12 11:14:27;;;;;;;2.40;2.20;;;;;;;23.91;43.52;93829.19;5047616;28;20046;-79
2022/08/12 11:16:57;;;;;;;3.00;2.70;;;;;;;24.31;43.53;93862.34;5048559;28;20017;-78
2022/08/12 11:19:24;;;;;;;2.90;2.42;;;;;;;24.43;43.81;93853.72;5051032;28;20021;-81
2022/08/12 11:21:51;;;;;;;3.25;2.53;;;;;;;24.53;43.26;93855.59;5049434;28;20028;-81
2022/08/12 11:24:17;;;;;;;2.88;2.50;;;;;;;24.41;42.64;93818.00;5046617;28;20020;-81
2022/08/12 11:26:42;;;;;;;2.85;2.63;;;;;;;24.65;43.96;93849.66;5047512;28;20025;-79
2022/08/12 11:29:07;;;;;;;2.17;1.98;;;;;;;24.56;43.03;93818.66;5047991;28;20387;-80
2022/08/12 11:31:33;;;;;;;3.65;2.55;;;;;;;24.70;42.00;93829.41;5047798;28;20968;-80
2022/08/12 11:33:58;;;;;;;3.03;2.45;;;;;;;24.61;40.99;93816.28;5048247;28;20021;-82
2022/08/12 11:36:24;;;;;;;2.58;2.25;;;;;;;24.85;42.22;93830.84;5047163;28;20057;-80
2022/08/12 11:38:49;;;;;;;2.88;2.25;;;;;;;24.69;41.03;93798.72;5048637;28;20471;-81
2022/08/12 11:41:16;;;;;;;2.63;2.42;;;;;;;24.92;41.11;93830.81;5053860;28;20518;-79
2022/08/12 11:43:41;;;;;;;2.92;2.50;;;;;;;24.94;40.80;93831.16;5049912;28;20364;-78
2022/08/12 11:46:07;;;;;;;5.85;2.50;;;;;;;25.02;41.07;93829.91;5048621;28;20031;-81
2022/08/12 11:48:41;;;;;;;4.95;2.30;;;;;;;25.01;41.28;93824.88;5048457;28;20480;-80
2022/08/12 11:51:06;;;;;;;3.92;2.38;;;;;;;25.14;42.30;93845.72;5049498;28;20028;-81
2022/08/12 11:53:32;;;;;;;2.20;2.00;;;;;;;24.90;41.26;93816.81;5047413;28;20025;-82
2022/08/12 11:55:58;;;;;;;2.60;2.40;;;;;;;25.08;39.78;93835.66;5047805;28;20051;-79
2022/08/12 11:58:23;;;;;;;2.75;2.40;;;;;;;24.94;40.31;93827.66;5047747;28;20029;-78
2022/08/12 12:00:49;;;;;;;4.55;2.65;;;;;;;24.84;41.19;93813.75;5045236;28;20097;-80
2022/08/12 12:03:14;;;;;;;6.85;2.78;;;;;;;25.00;39.96;93820.59;5046738;28;20025;-80
2022/08/12 12:05:39;;;;;;;2.97;2.50;;;;;;;24.90;40.47;93805.94;5046000;28;20024;-80
2022/08/12 12:08:05;;;;;;;5.75;3.22;;;;;;;24.99;40.88;93813.63;5049727;28;20658;-81
2022/08/12 12:10:30;;;;;;;2.35;2.08;;;;;;;25.08;40.58;93822.06;5046985;28;20273;-81
2022/08/12 12:12:56;;;;;;;3.25;2.47;;;;;;;24.92;40.63;93813.69;5048470;28;21031;-81
2022/08/12 12:15:22;;;;;;;3.47;2.92;;;;;;;25.03;40.34;93811.66;5046929;28;20036;-79
2022/08/12 12:17:50;;;;;;;5.38;3.95;;;;;;;25.10;40.19;93830.59;5047330;28;20028;-83
2022/08/12 12:20:15;;;;;;;3.15;2.55;;;;;;;24.99;40.31;93806.22;5043515;28;20031;-81
2022/08/12 12:22:41;;;;;;;2.92;2.20;;;;;;;24.90;40.26;93810.59;5044280;28;20029;-80
2022/08/12 12:25:08;;;;;;;2.40;2.20;;;;;;;24.81;39.42;93806.41;5044602;28;20375;-80
2022/08/12 12:27:50;;;;;;;2.30;2.00;;;;;;;24.78;39.41;93803.75;5049928;28;20035;-80
2022/08/12 12:30:17;;;;;;;2.40;2.20;;;;;;;25.00;39.79;93798.84;5045026;28;20100;-81
2022/08/12 12:32:42;;;;;;;3.00;2.28;;;;;;;25.06;39.25;93813.56;5043047;28;20021;-81
2022/08/12 12:35:08;;;;;;;2.53;2.28;;;;;;;25.03;38.51;93792.59;5045689;28;20617;-80
2022/08/12 12:37:34;;;;;;;3.10;2.45;;;;;;;25.21;38.86;93804.06;5044073;28;20419;-81
2022/08/12 12:40:00;;;;;;;2.80;2.30;;;;;;;25.21;39.34;93793.16;5047533;28;20174;-80
2022/08/12 12:42:26;;;;;;;2.63;2.42;;;;;;;25.37;39.00;93809.72;5041069;28;20036;-80
2022/08/12 12:44:52;;;;;;;2.50;2.10;;;;;;;25.26;39.31;93779.91;5044454;28;20047;-80
2022/08/12 12:47:17;;;;;;;8.77;3.92;;;;;;;25.41;38.32;93790.63;5044794;28;20037;-81
2022/08/12 12:49:43;;;;;;;13.90;4.85;;;;;;;25.38;38.91;93775.88;5047652;28;20423;-80
2022/08/12 12:52:09;;;;;;;10.57;5.32;;;;;;;25.47;38.81;93795.19;5046899;28;21039;-81
2022/08/12 12:54:34;;;;;;;6.72;3.50;;;;;;;25.35;39.84;93782.16;5044968;28;20433;-80
2022/08/12 12:56:59;;;;;;;8.82;4.18;;;;;;;25.43;39.06;93783.59;5045837;28;20394;-80
2022/08/12 12:59:27;;;;;;;4.50;3.05;;;;;;;25.29;37.80;93781.00;5042659;28;20622;-80
2022/08/12 13:01:53;;;;;;;5.10;3.10;;;;;;;25.19;37.90;93779.19;5047183;28;20607;-80
2022/08/12 13:04:18;;;;;;;5.47;3.45;;;;;;;25.20;38.30;93770.63;5044267;28;20539;-81
2022/08/12 13:06:50;;;;;;;5.03;3.55;;;;;;;25.16;37.84;93758.25;5044469;28;20044;-80
2022/08/12 13:09:16;;;;;;;4.15;3.22;;;;;;;25.35;41.42;93775.94;5046695;28;20031;-80
2022/08/12 13:11:42;;;;;;;3.25;2.55;;;;;;;25.18;37.70;93737.59;5046810;28;20558;-80
2022/08/12 13:14:09;;;;;;;5.32;3.42;;;;;;;25.33;37.82;93740.16;5042924;28;20369;-80
2022/08/12 13:16:35;;;;;;;4.32;3.10;;;;;;;25.36;39.26;93740.13;5044801;28;20551;-80
2022/08/12 13:19:01;;;;;;;3.47;3.17;;;;;;;25.55;39.79;93753.09;5046140;28;20029;-81
2022/08/12 13:21:29;;;;;;;5.07;2.83;;;;;;;25.55;38.55;93744.94;5045546;28;20484;-81
2022/08/12 13:23:55;;;;;;;3.58;2.80;;;;;;;25.60;40.88;93739.03;5046891;28;20029;-80
2022/08/12 13:26:21;;;;;;;3.65;3.22;;;;;;;25.63;38.71;93753.78;5044731;28;20033;-78
2022/08/12 13:28:49;;;;;;;3.20;2.90;;;;;;;25.67;38.43;93746.31;5043774;28;20751;-80
2022/08/12 13:31:15;;;;;;;4.00;3.20;;;;;;;25.50;37.61;93733.72;5040635;28;20025;-81
2022/08/12 13:33:41;;;;;;;2.85;2.50;;;;;;;25.37;37.01;93749.81;5042844;28;20031;-75
2022/08/12 13:36:07;;;;;;;8.40;2.50;;;;;;;25.28;36.97;93749.53;5041107;28;20102;-75
2022/08/12 13:38:41;;;;;;;3.40;2.78;;;;;;;25.16;38.18;93752.81;5055130;28;20112;-75
2022/08/12 13:43:55;;;;;;;3.22;2.92;;;;;;;25.28;38.73;93760.41;5043867;28;20949;-75
2022/08/12 13:46:20;;;;;;;3.78;3.42;;;;;;;25.26;38.47;93762.78;5039636;28;20017;-77
2022/08/12 13:48:46;;;;;;;4.85;2.72;;;;;;;25.11;39.27;93750.53;5041795;28;20079;-76